createdAt,value
2019-02-02T00:00:44.061Z,30.20
2019-02-02T00:03:13.375Z,31.63
2019-02-02T00:05:42.609Z,30.50
2019-02-02T00:08:11.997Z,27.47
2019-02-02T00:10:41.250Z,30.93
2019-02-02T00:13:10.515Z,33.83
2019-02-02T00:15:39.821Z,29.37
2019-02-02T00:18:09.305Z,30.10
2019-02-02T00:20:38.639Z,25.97
2019-02-02T00:23:07.913Z,31.47
2019-02-02T00:25:37.136Z,36.77
2019-02-02T00:28:06.573Z,32.13
2019-02-02T00:30:35.813Z,32.00
2019-02-02T00:33:05.668Z,29.07
2019-02-02T00:35:34.896Z,28.77
2019-02-02T00:38:04.423Z,33.90
2019-02-02T00:40:33.709Z,30.53
2019-02-02T00:43:02.983Z,28.73
2019-02-02T00:45:32.678Z,25.73
2019-02-02T00:48:01.950Z,26.83
2019-02-02T00:50:31.215Z,25.17
2019-02-02T00:53:01.190Z,30.37
2019-02-02T00:55:31.604Z,35.60
2019-02-02T00:58:00.856Z,37.43
2019-02-02T01:00:30.310Z,32.70
2019-02-02T01:02:59.551Z,38.90
2019-02-02T01:05:28.959Z,36.60
2019-02-02T01:07:58.194Z,35.87
2019-02-02T01:10:30.500Z,33.37
2019-02-02T01:13:00.007Z,28.37
2019-02-02T01:15:29.566Z,32.60
2019-02-02T01:17:58.998Z,30.35
2019-02-02T01:20:28.868Z,33.43
2019-02-02T01:22:58.124Z,29.57
2019-02-02T01:25:27.392Z,29.57
2019-02-02T01:28:04.879Z,31.10
2019-02-02T01:30:28.038Z,33.67
2019-02-02T01:32:57.362Z,26.20
2019-02-02T01:35:26.596Z,31.67
2019-02-02T01:37:55.849Z,34.00
2019-02-02T01:40:26.429Z,29.40
2019-02-02T01:42:56.454Z,30.40
2019-02-02T01:45:27.151Z,35.00
2019-02-02T01:47:56.921Z,33.43
2019-02-02T01:50:27.487Z,31.60
2019-02-02T01:52:57.194Z,35.37
2019-02-02T01:55:26.618Z,32.57
2019-02-02T01:57:55.937Z,35.20
2019-02-02T02:00:30.616Z,37.10
2019-02-02T02:02:59.951Z,29.37
2019-02-02T02:05:29.378Z,38.00
2019-02-02T02:07:59.188Z,31.47
2019-02-02T02:10:28.425Z,32.03
2019-02-02T02:12:57.666Z,34.50
2019-02-02T02:15:26.999Z,31.93
2019-02-02T02:17:56.324Z,28.47
2019-02-02T02:20:25.573Z,35.43
2019-02-02T02:22:54.838Z,31.50
2019-02-02T02:25:24.105Z,35.43
2019-02-02T02:27:53.334Z,33.13
2019-02-02T02:30:24.014Z,36.90
2019-02-02T02:32:53.620Z,31.53
2019-02-02T02:35:23.064Z,30.07
2019-02-02T02:37:52.374Z,30.33
2019-02-02T02:40:23.256Z,28.27
2019-02-02T02:42:53.131Z,31.37
2019-02-02T02:45:22.511Z,33.20
2019-02-02T02:47:51.905Z,30.40
2019-02-02T02:50:22.397Z,31.27
2019-02-02T02:52:51.874Z,30.37
2019-02-02T02:55:21.108Z,30.23
2019-02-02T02:57:50.359Z,33.23
2019-02-02T03:00:21.526Z,35.60
2019-02-02T03:02:51.209Z,26.13
2019-02-02T03:05:21.298Z,27.03
2019-02-02T03:07:52.090Z,30.25
2019-02-02T03:10:23.483Z,29.50
2019-02-02T03:12:53.653Z,34.00
2019-02-02T03:15:23.209Z,35.47
2019-02-02T03:17:52.764Z,37.13
2019-02-02T03:20:22.267Z,33.13
2019-02-02T03:22:51.537Z,30.87
2019-02-02T03:25:25.632Z,31.33
2019-02-02T03:27:55.077Z,36.97
2019-02-02T03:30:24.319Z,32.23
2019-02-02T03:32:53.628Z,29.93
2019-02-02T03:35:25.750Z,34.17
2019-02-02T03:37:55.371Z,34.70
2019-02-02T03:40:24.985Z,37.73
2019-02-02T03:42:54.313Z,33.40
2019-02-02T03:45:24.506Z,30.17
2019-02-02T03:47:55.263Z,32.73
2019-02-02T03:50:24.855Z,35.43
2019-02-02T03:52:54.097Z,33.10
2019-02-02T03:55:23.488Z,35.60
2019-02-02T03:57:53.306Z,35.33
2019-02-02T04:00:22.988Z,35.23
2019-02-02T04:02:52.362Z,32.70
2019-02-02T04:05:26.741Z,34.53
2019-02-02T04:07:56.001Z,37.57
2019-02-02T04:10:25.260Z,31.57
2019-02-02T04:12:54.571Z,36.40
2019-02-02T04:15:23.870Z,29.43
2019-02-02T04:17:53.383Z,39.77
2019-02-02T04:20:23.466Z,35.13
2019-02-02T04:22:52.973Z,33.73
2019-02-02T04:25:23.055Z,34.20
2019-02-02T04:27:52.658Z,38.97
2019-02-02T04:30:26.671Z,31.40
2019-02-02T04:32:56.080Z,37.60
2019-02-02T04:35:25.511Z,36.63
2019-02-02T04:37:54.801Z,36.23
2019-02-02T04:40:24.359Z,34.70
2019-02-02T04:42:53.587Z,35.43
2019-02-02T04:45:22.894Z,36.03
2019-02-02T04:47:52.128Z,38.23
2019-02-02T04:50:21.949Z,34.53
2019-02-02T04:52:51.262Z,38.90
2019-02-02T04:55:20.566Z,34.00
2019-02-02T04:57:49.871Z,38.03
2019-02-02T05:00:28.486Z,38.70
2019-02-02T05:02:57.734Z,40.40
2019-02-02T05:05:27.007Z,40.93
2019-02-02T05:07:56.256Z,33.17
2019-02-02T05:10:44.850Z,32.63
2019-02-02T05:13:14.096Z,34.67
2019-02-02T05:15:43.448Z,37.33
2019-02-02T05:18:12.743Z,38.27
2019-02-02T05:20:42.004Z,32.43
2019-02-02T05:23:11.254Z,35.70
2019-02-02T05:25:41.463Z,40.30
2019-02-02T05:28:10.723Z,35.20
2019-02-02T05:30:39.976Z,42.10
2019-02-02T05:33:09.214Z,33.67
2019-02-02T05:35:38.466Z,32.70
2019-02-02T05:38:07.705Z,48.07
2019-02-02T05:40:36.932Z,35.20
2019-02-02T05:43:06.252Z,36.60
2019-02-02T05:45:35.492Z,37.03
2019-02-02T05:48:04.975Z,39.17
2019-02-02T05:50:34.236Z,36.47
2019-02-02T05:53:03.482Z,34.97
2019-02-02T05:55:32.798Z,36.87
2019-02-02T05:58:02.036Z,34.63
2019-02-02T06:00:33.395Z,33.00
2019-02-02T06:03:02.714Z,40.57
2019-02-02T06:05:32.044Z,34.97
2019-02-02T06:08:01.276Z,33.90
2019-02-02T06:10:30.709Z,33.97
2019-02-02T06:13:00.030Z,34.03
2019-02-02T06:15:29.388Z,32.00
2019-02-02T06:17:58.895Z,33.77
2019-02-02T06:20:28.257Z,30.53
2019-02-02T06:22:57.581Z,33.87
2019-02-02T06:25:26.844Z,30.87
2019-02-02T06:27:56.151Z,35.53
2019-02-02T06:30:26.049Z,35.40
2019-02-02T06:32:55.358Z,30.67
2019-02-02T06:35:24.610Z,29.67
2019-02-02T06:37:53.872Z,33.63
2019-02-02T06:40:23.191Z,27.40
2019-02-02T06:42:52.542Z,31.43
2019-02-02T06:45:27.655Z,30.57
2019-02-02T06:47:57.227Z,43.33
2019-02-02T06:50:26.649Z,39.13
2019-02-02T06:52:56.235Z,33.55
2019-02-02T06:55:25.485Z,34.03
2019-02-02T06:57:54.806Z,37.10
2019-02-02T07:00:28.461Z,37.30
2019-02-02T07:02:57.699Z,38.30
2019-02-02T07:05:27.297Z,42.37
2019-02-02T07:07:56.630Z,40.50
2019-02-02T07:10:28.244Z,39.60
2019-02-02T07:12:57.647Z,37.50
2019-02-02T07:15:29.379Z,36.87
2019-02-02T07:17:58.728Z,36.05
2019-02-02T07:20:28.054Z,33.10
2019-02-02T07:22:57.451Z,32.27
2019-02-02T07:25:26.787Z,36.07
2019-02-02T07:27:56.191Z,38.17
2019-02-02T07:30:29.093Z,40.17
2019-02-02T07:32:56.935Z,33.37
2019-02-02T07:35:26.322Z,34.13
2019-02-02T07:37:55.561Z,31.80
2019-02-02T07:40:24.811Z,35.33
2019-02-02T07:42:54.055Z,38.30
2019-02-02T07:45:29.042Z,44.20
2019-02-02T07:47:58.277Z,33.83
2019-02-02T07:50:27.761Z,33.03
2019-02-02T07:52:57.062Z,40.43
2019-02-02T07:55:26.300Z,32.20
2019-02-02T07:57:55.547Z,36.58
2019-02-02T08:00:40.383Z,33.20
2019-02-02T08:03:01.405Z,33.83
2019-02-02T08:05:30.888Z,39.60
2019-02-02T08:08:00.254Z,32.03
2019-02-02T08:10:29.651Z,30.00
2019-02-02T08:12:58.964Z,30.90
2019-02-02T08:15:33.429Z,33.93
2019-02-02T08:18:02.751Z,35.47
2019-02-02T08:20:31.980Z,35.20
2019-02-02T08:23:01.260Z,34.90
2019-02-02T08:25:30.584Z,34.27
2019-02-02T08:27:59.861Z,32.40
2019-02-02T08:30:31.448Z,35.57
2019-02-02T08:33:00.850Z,35.90
2019-02-02T08:35:30.169Z,31.93
2019-02-02T08:37:59.494Z,29.13
2019-02-02T08:40:28.740Z,30.80
2019-02-02T08:42:58.004Z,30.47
2019-02-02T08:45:27.233Z,35.87
2019-02-02T08:47:56.470Z,33.00
2019-02-02T08:50:31.647Z,32.67
2019-02-02T08:53:01.010Z,29.50
2019-02-02T08:55:30.686Z,33.27
2019-02-02T08:58:00.031Z,27.37
2019-02-02T09:00:29.452Z,33.83
2019-02-02T09:02:58.901Z,30.97
2019-02-02T09:05:28.282Z,29.40
2019-02-02T09:07:57.542Z,30.93
2019-02-02T09:10:28.473Z,29.03
2019-02-02T09:12:58.341Z,27.97
2019-02-02T09:15:27.819Z,26.27
2019-02-02T09:17:57.072Z,27.20
2019-02-02T09:20:26.638Z,29.73
2019-02-02T09:23:04.203Z,28.73
2019-02-02T09:25:26.958Z,24.77
2019-02-02T09:27:56.218Z,29.07
2019-02-02T09:30:30.786Z,27.77
2019-02-02T09:33:00.169Z,27.33
2019-02-02T09:35:29.461Z,26.07
2019-02-02T09:37:58.796Z,27.30
2019-02-02T09:40:28.166Z,26.97
2019-02-02T09:42:57.432Z,35.30
2019-02-02T09:45:26.693Z,31.60
2019-02-02T09:47:56.066Z,26.50
2019-02-02T09:50:26.749Z,26.97
2019-02-02T09:52:56.250Z,30.03
2019-02-02T09:55:26.724Z,29.30
2019-02-02T09:58:05.168Z,34.63
2019-02-02T10:00:34.542Z,26.83
2019-02-02T10:03:04.654Z,26.90
2019-02-02T10:05:33.898Z,24.77
2019-02-02T10:08:03.175Z,30.97
2019-02-02T10:10:34.068Z,29.97
2019-02-02T10:13:03.542Z,25.10
2019-02-02T10:15:32.765Z,27.67
2019-02-02T10:18:02.032Z,30.37
2019-02-02T10:20:32.162Z,27.03
2019-02-02T10:23:01.706Z,23.67
2019-02-02T10:25:31.715Z,32.13
2019-02-02T10:28:01.066Z,32.77
2019-02-02T10:30:32.557Z,31.30
2019-02-02T10:33:01.860Z,27.97
2019-02-02T10:35:31.356Z,37.17
2019-02-02T10:38:00.663Z,33.63
2019-02-02T10:40:30.271Z,29.07
2019-02-02T10:42:59.826Z,27.90
2019-02-02T10:45:29.139Z,34.10
2019-02-02T10:47:58.662Z,29.23
2019-02-02T10:50:27.977Z,30.53
2019-02-02T10:52:57.291Z,38.00
2019-02-02T10:55:26.602Z,39.13
2019-02-02T10:57:55.923Z,36.17
2019-02-02T11:00:27.691Z,32.27
2019-02-02T11:02:57.289Z,21.37
2019-02-02T11:05:26.623Z,27.10
2019-02-02T11:07:56.143Z,25.40
2019-02-02T11:10:33.429Z,25.90
2019-02-02T11:13:02.853Z,24.70
2019-02-02T11:15:32.195Z,22.07
2019-02-02T11:18:01.708Z,19.87
2019-02-02T11:20:33.022Z,18.87
2019-02-02T11:23:02.532Z,22.43
2019-02-02T11:25:32.116Z,19.17
2019-02-02T11:28:01.625Z,24.90
2019-02-02T11:30:31.637Z,19.57
2019-02-02T11:33:01.119Z,26.77
2019-02-02T11:35:30.356Z,25.77
2019-02-02T11:37:59.598Z,24.00
2019-02-02T11:40:33.963Z,29.57
2019-02-02T11:43:03.837Z,23.23
2019-02-02T11:45:33.125Z,20.50
2019-02-02T11:48:02.452Z,19.57
2019-02-02T11:50:31.702Z,18.27
2019-02-02T11:53:00.990Z,21.83
2019-02-02T11:55:30.297Z,15.03
2019-02-02T11:57:59.545Z,17.90
2019-02-02T12:00:36.696Z,17.93
2019-02-02T12:03:06.188Z,21.20
2019-02-02T12:05:35.573Z,16.40
2019-02-02T12:08:05.548Z,17.83
2019-02-02T12:10:35.646Z,15.67
2019-02-02T12:13:05.332Z,19.37
2019-02-02T12:15:34.784Z,16.83
2019-02-02T12:18:04.519Z,15.97
2019-02-02T12:20:33.893Z,18.23
2019-02-02T12:23:03.379Z,23.40
2019-02-02T12:25:32.653Z,28.30
2019-02-02T12:28:01.896Z,29.60
2019-02-02T12:30:33.755Z,24.27
2019-02-02T12:33:03.804Z,28.30
2019-02-02T12:35:33.233Z,21.37
2019-02-02T12:38:02.786Z,27.47
2019-02-02T12:40:32.117Z,25.80
2019-02-02T12:43:01.370Z,27.70
2019-02-02T12:45:37.120Z,24.23
2019-02-02T12:48:07.013Z,21.90
2019-02-02T12:50:36.405Z,17.20
2019-02-02T12:53:05.868Z,20.17
2019-02-02T12:55:35.183Z,22.17
2019-02-02T12:58:06.176Z,23.77
2019-02-02T13:00:35.573Z,20.53
2019-02-02T13:03:05.622Z,18.73
2019-02-02T13:05:34.934Z,17.33
2019-02-02T13:08:05.696Z,18.43
2019-02-02T13:10:35.204Z,25.70
2019-02-02T13:13:04.720Z,21.13
2019-02-02T13:15:34.043Z,17.33
2019-02-02T13:18:03.362Z,18.70
2019-02-02T13:20:32.603Z,17.87
2019-02-02T13:23:01.854Z,16.67
2019-02-02T13:25:31.110Z,17.03
2019-02-02T13:28:00.351Z,13.73
2019-02-02T13:30:32.492Z,12.87
2019-02-02T13:33:01.754Z,12.10
2019-02-02T13:35:33.601Z,15.43
2019-02-02T13:38:02.916Z,11.50
2019-02-02T13:40:32.327Z,12.37
2019-02-02T13:43:01.617Z,14.53
2019-02-02T13:45:30.943Z,20.57
2019-02-02T13:48:12.333Z,20.50
2019-02-02T13:50:42.198Z,13.40
2019-02-02T13:53:11.563Z,14.87
2019-02-02T13:55:40.805Z,13.60
2019-02-02T13:58:10.179Z,18.43
2019-02-02T14:00:39.450Z,15.33
2019-02-02T14:03:08.701Z,23.27
2019-02-02T14:05:38.026Z,18.37
2019-02-02T14:08:07.354Z,15.30
2019-02-02T14:10:36.762Z,13.90
2019-02-02T14:13:06.194Z,20.63
2019-02-02T14:15:35.534Z,16.50
2019-02-02T14:18:05.233Z,14.83
2019-02-02T14:20:34.469Z,16.83
2019-02-02T14:23:03.798Z,13.07
2019-02-02T14:25:33.087Z,12.67
2019-02-02T14:28:02.452Z,11.70
2019-02-02T14:30:31.842Z,17.43
2019-02-02T14:33:12.983Z,12.93
2019-02-02T14:35:32.115Z,12.77
2019-02-02T14:38:01.346Z,11.20
2019-02-02T14:40:30.686Z,13.00
2019-02-02T14:42:59.914Z,9.00
2019-02-02T14:45:29.314Z,15.07
2019-02-02T14:47:58.548Z,13.70
2019-02-02T14:50:27.985Z,15.97
2019-02-02T14:52:57.224Z,11.60
2019-02-02T14:55:28.975Z,14.70
2019-02-02T14:57:58.212Z,12.90
2019-02-02T15:00:29.195Z,11.03
2019-02-02T15:02:58.722Z,9.10
2019-02-02T15:05:28.044Z,9.37
2019-02-02T15:07:57.280Z,8.50
2019-02-02T15:10:26.606Z,10.10
2019-02-02T15:12:55.854Z,8.93
2019-02-02T15:15:25.157Z,7.97
2019-02-02T15:17:54.473Z,7.43
2019-02-02T15:20:29.092Z,6.60
2019-02-02T15:22:58.418Z,5.93
2019-02-02T15:25:27.842Z,5.37
2019-02-02T15:27:57.220Z,5.00
2019-02-02T15:30:31.934Z,5.93
2019-02-02T15:33:01.270Z,5.73
2019-02-02T15:35:30.675Z,5.53
2019-02-02T15:37:59.998Z,7.00
2019-02-02T15:40:31.443Z,6.17
2019-02-02T15:43:00.545Z,4.60
2019-02-02T15:45:31.521Z,5.70
2019-02-02T15:48:00.900Z,6.80
2019-02-02T15:50:30.275Z,6.23
2019-02-02T15:52:59.616Z,6.77
2019-02-02T15:55:28.922Z,9.23
2019-02-02T15:57:58.174Z,8.53
2019-02-02T16:00:30.102Z,7.77
2019-02-02T16:02:59.581Z,7.13
2019-02-02T16:05:29.353Z,8.83
2019-02-02T16:08:00.607Z,8.37
2019-02-02T16:10:31.994Z,10.67
2019-02-02T16:13:01.772Z,9.50
2019-02-02T16:15:34.136Z,11.47
2019-02-02T16:18:02.083Z,8.47
2019-02-02T16:20:41.895Z,21.73
2019-02-02T16:23:10.341Z,22.60
2019-02-02T16:25:39.592Z,38.13
2019-02-02T16:28:08.993Z,33.70
2019-02-02T16:30:38.391Z,25.80
2019-02-02T16:33:07.862Z,24.23
2019-02-02T16:35:37.211Z,21.50
2019-02-02T16:38:07.109Z,34.67
2019-02-02T16:40:36.381Z,40.67
2019-02-02T16:43:05.963Z,39.57
2019-02-02T16:45:35.635Z,32.63
2019-02-02T16:48:05.722Z,28.83
2019-02-02T16:50:35.031Z,30.00
2019-02-02T16:53:04.484Z,29.50
2019-02-02T16:55:33.787Z,29.97
2019-02-02T16:58:03.049Z,29.00
2019-02-02T17:00:33.942Z,24.93
2019-02-02T17:03:03.285Z,21.97
2019-02-02T17:05:32.603Z,28.30
2019-02-02T17:08:02.019Z,21.43
2019-02-02T17:10:33.606Z,25.87
2019-02-02T17:13:02.923Z,24.93
2019-02-02T17:15:32.250Z,16.70
2019-02-02T17:18:01.528Z,19.37
2019-02-02T17:20:33.513Z,19.70
2019-02-02T17:23:02.749Z,19.97
2019-02-02T17:25:32.182Z,20.50
2019-02-02T17:28:01.447Z,20.07
2019-02-02T17:30:30.694Z,18.87
2019-02-02T17:33:02.864Z,18.10
2019-02-02T17:35:32.202Z,17.63
2019-02-02T17:38:01.578Z,18.33
2019-02-02T17:40:31.308Z,16.97
2019-02-02T17:43:00.665Z,15.53
2019-02-02T17:45:30.055Z,15.70
2019-02-02T17:47:59.292Z,17.67
2019-02-02T17:50:29.839Z,18.47
2019-02-02T17:52:59.229Z,19.00
2019-02-02T17:55:28.588Z,18.93
2019-02-02T17:57:57.864Z,16.15
2019-02-02T18:00:49.276Z,14.13
2019-02-02T18:03:18.582Z,16.53
2019-02-02T18:05:47.824Z,14.23
2019-02-02T18:08:17.072Z,14.53
2019-02-02T18:10:46.340Z,21.17
2019-02-02T18:13:15.576Z,13.17
2019-02-02T18:15:44.858Z,17.53
2019-02-02T18:18:14.108Z,17.27
2019-02-02T18:20:43.345Z,15.80
2019-02-02T18:23:12.593Z,16.10
2019-02-02T18:25:42.460Z,16.27
2019-02-02T18:28:11.716Z,15.20
2019-02-02T18:30:40.964Z,17.23
2019-02-02T18:33:10.206Z,16.63
2019-02-02T18:35:39.437Z,16.27
2019-02-02T18:38:08.786Z,14.93
2019-02-02T18:40:39.984Z,17.07
2019-02-02T18:43:08.963Z,14.93
2019-02-02T18:45:38.386Z,13.77
2019-02-02T18:48:07.828Z,13.70
2019-02-02T18:50:37.121Z,14.10
2019-02-02T18:53:06.396Z,15.80
2019-02-02T18:55:41.599Z,16.93
2019-02-02T18:58:10.919Z,20.40
2019-02-02T19:00:40.166Z,18.27
2019-02-02T19:03:09.573Z,18.43
2019-02-02T19:05:38.811Z,18.87
2019-02-02T19:08:08.052Z,20.43
2019-02-02T19:10:40.425Z,20.37
2019-02-02T19:13:10.098Z,19.63
2019-02-02T19:15:39.393Z,22.17
2019-02-02T19:18:08.720Z,20.73
2019-02-02T19:20:38.003Z,18.20
2019-02-02T19:23:07.326Z,21.60
2019-02-02T19:25:36.582Z,21.00
2019-02-02T19:28:06.886Z,24.30
2019-02-02T19:30:36.677Z,16.67
2019-02-02T19:33:06.452Z,17.50
2019-02-02T19:35:35.727Z,20.40
2019-02-02T19:38:05.301Z,20.20
2019-02-02T19:40:34.522Z,21.37
2019-02-02T19:43:04.136Z,24.10
2019-02-02T19:45:33.454Z,24.20
2019-02-02T19:48:02.697Z,31.30
2019-02-02T19:50:31.916Z,27.40
2019-02-02T19:53:01.279Z,34.10
2019-02-02T19:55:30.724Z,37.90
2019-02-02T19:58:00.038Z,41.47
2019-02-02T20:00:33.914Z,34.73
2019-02-02T20:03:03.902Z,37.87
2019-02-02T20:05:33.150Z,31.70
2019-02-02T20:08:02.405Z,38.67
2019-02-02T20:10:31.655Z,38.10
2019-02-02T20:13:00.917Z,33.30
2019-02-02T20:15:30.232Z,27.43
2019-02-02T20:18:09.546Z,25.40
2019-02-02T20:20:30.514Z,22.93
2019-02-02T20:22:59.751Z,28.90
2019-02-02T20:25:29.015Z,25.67
2019-02-02T20:27:58.281Z,24.43
2019-02-02T20:30:31.836Z,26.67
2019-02-02T20:33:01.117Z,26.17
2019-02-02T20:35:40.183Z,22.40
2019-02-02T20:38:01.314Z,25.53
2019-02-02T20:40:30.563Z,24.50
2019-02-02T20:42:59.803Z,20.40
2019-02-02T20:45:34.849Z,23.33
2019-02-02T20:48:04.786Z,20.10
2019-02-02T20:50:34.026Z,18.63
2019-02-02T20:53:03.645Z,17.93
2019-02-02T20:55:36.124Z,15.80
2019-02-02T20:58:06.247Z,18.80
2019-02-02T21:00:35.573Z,17.27
2019-02-02T21:03:05.153Z,21.03
2019-02-02T21:05:34.486Z,16.67
2019-02-02T21:08:04.458Z,17.60
2019-02-02T21:10:33.803Z,13.17
2019-02-02T21:13:03.037Z,20.33
2019-02-02T21:15:32.275Z,18.27
2019-02-02T21:18:01.536Z,16.82
2019-02-02T21:20:31.171Z,15.20
2019-02-02T21:23:00.557Z,17.67
2019-02-02T21:25:29.894Z,19.03
2019-02-02T21:27:59.148Z,16.53
2019-02-02T21:30:31.001Z,12.60
2019-02-02T21:33:00.327Z,12.23
2019-02-02T21:35:29.649Z,16.30
2019-02-02T21:37:58.907Z,17.03
2019-02-02T21:40:30.381Z,16.03
2019-02-02T21:42:59.851Z,18.77
2019-02-02T21:45:29.349Z,13.83
2019-02-02T21:47:58.699Z,15.23
2019-02-02T21:50:28.022Z,18.30
2019-02-02T21:52:57.273Z,17.43
2019-02-02T21:55:28.755Z,21.43
2019-02-02T21:57:58.233Z,21.43
2019-02-02T22:00:30.302Z,20.60
2019-02-02T22:02:59.573Z,22.00
2019-02-02T22:05:28.943Z,20.53
2019-02-02T22:07:58.273Z,22.70
2019-02-02T22:10:27.680Z,21.80
2019-02-02T22:12:57.295Z,19.97
2019-02-02T22:15:27.976Z,17.87
2019-02-02T22:17:57.423Z,19.75
2019-02-02T22:20:26.819Z,18.07
2019-02-02T22:22:56.134Z,18.93
2019-02-02T22:25:30.670Z,20.73
2019-02-02T22:28:00.185Z,20.87
2019-02-02T22:30:32.110Z,20.73
2019-02-02T22:33:01.421Z,24.80
2019-02-02T22:35:30.748Z,24.53
2019-02-02T22:38:00.608Z,21.07
2019-02-02T22:40:30.098Z,22.43
2019-02-02T22:42:59.576Z,27.00
2019-02-02T22:45:28.887Z,26.30
2019-02-02T22:47:58.140Z,26.40
2019-02-02T22:50:28.528Z,25.93
2019-02-02T22:52:57.798Z,18.70
2019-02-02T22:55:27.162Z,23.50
2019-02-02T22:57:56.492Z,19.87
2019-02-02T23:00:48.327Z,23.60
2019-02-02T23:03:26.488Z,19.13
2019-02-02T23:06:11.032Z,21.80
2019-02-02T23:09:06.617Z,21.13
2019-02-02T23:11:51.074Z,22.50
2019-02-02T23:14:26.268Z,19.63
2019-02-02T23:16:55.587Z,25.03
2019-02-02T23:19:24.831Z,24.90
2019-02-02T23:21:54.075Z,20.97
2019-02-02T23:24:23.330Z,23.83
2019-02-02T23:26:52.970Z,22.13
2019-02-02T23:29:22.378Z,23.93
2019-02-02T23:31:51.674Z,26.37
2019-02-02T23:34:20.921Z,24.57
2019-02-02T23:36:54.544Z,23.30
2019-02-02T23:39:21.223Z,27.37
2019-02-02T23:41:50.548Z,23.33
2019-02-02T23:44:19.805Z,25.57
2019-02-02T23:46:49.440Z,22.50
2019-02-02T23:49:18.850Z,28.53
2019-02-02T23:51:48.109Z,28.87
2019-02-02T23:54:17.390Z,26.30
2019-02-02T23:56:49.353Z,30.33
2019-02-02T23:59:18.606Z,39.60
